createdAt,value
2022-08-27T00:00:39.918Z,8.25
2022-08-27T00:01:43.143Z,8.30
2022-08-27T00:02:47.393Z,8.60
2022-08-27T00:03:50.168Z,7.82
2022-08-27T00:04:53.399Z,8.63
2022-08-27T00:05:55.490Z,8.40
2022-08-27T00:07:00.083Z,7.68
2022-08-27T00:08:02.417Z,8.27
2022-08-27T00:09:06.138Z,8.52
2022-08-27T00:10:10.599Z,8.50
2022-08-27T00:11:14.966Z,8.93
2022-08-27T00:12:17.233Z,8.32
2022-08-27T00:13:20.349Z,8.65
2022-08-27T00:14:22.848Z,8.63
2022-08-27T00:15:26.366Z,8.07
2022-08-27T00:16:28.972Z,7.93
2022-08-27T00:17:35.193Z,8.43
2022-08-27T00:18:39.101Z,8.60
2022-08-27T00:19:42.295Z,8.30
2022-08-27T00:20:44.561Z,7.85
2022-08-27T00:21:47.611Z,9.13
2022-08-27T00:22:51.079Z,7.90
2022-08-27T00:23:54.636Z,8.68
2022-08-27T00:24:56.674Z,7.85
2022-08-27T00:26:00.589Z,8.82
2022-08-27T00:27:02.830Z,8.52
2022-08-27T00:28:06.296Z,8.88
2022-08-27T00:29:08.560Z,8.57
2022-08-27T00:30:15.585Z,9.00
2022-08-27T00:31:18.091Z,9.00
2022-08-27T00:32:21.213Z,8.93
2022-08-27T00:33:24.162Z,8.57
2022-08-27T00:34:27.708Z,8.88
2022-08-27T00:35:29.809Z,8.93
2022-08-27T00:36:32.944Z,9.57
2022-08-27T00:37:35.330Z,8.15
2022-08-27T00:38:41.169Z,8.80
2022-08-27T00:39:43.331Z,8.45
2022-08-27T00:40:46.851Z,9.50
2022-08-27T00:41:49.080Z,9.43
2022-08-27T00:42:52.187Z,9.55
2022-08-27T00:43:57.415Z,8.95
2022-08-27T00:45:00.772Z,8.82
2022-08-27T00:46:08.083Z,9.05
2022-08-27T00:47:14.950Z,9.07
2022-08-27T00:48:21.212Z,9.13
2022-08-27T00:49:28.890Z,9.85
2022-08-27T00:50:34.143Z,9.65
2022-08-27T00:51:38.665Z,9.45
2022-08-27T00:52:45.270Z,9.90
2022-08-27T00:53:50.426Z,10.10
2022-08-27T00:54:57.288Z,11.50
2022-08-27T00:56:05.852Z,10.55
2022-08-27T00:57:08.207Z,11.25
2022-08-27T00:58:17.851Z,9.98
2022-08-27T00:59:23.635Z,11.18
2022-08-27T01:00:26.891Z,11.32
2022-08-27T01:01:31.910Z,11.05
2022-08-27T01:02:38.916Z,11.15
2022-08-27T01:03:45.076Z,11.68
2022-08-27T01:04:55.254Z,11.77
2022-08-27T01:05:59.759Z,12.00
2022-08-27T01:07:03.523Z,12.18
2022-08-27T01:08:10.712Z,12.70
2022-08-27T01:09:17.264Z,12.50
2022-08-27T01:10:23.932Z,12.23
2022-08-27T01:11:26.305Z,11.80
2022-08-27T01:12:32.830Z,12.60
2022-08-27T01:13:59.156Z,12.68
2022-08-27T01:14:58.816Z,12.77
2022-08-27T01:16:01.622Z,12.63
2022-08-27T01:17:07.253Z,12.65
2022-08-27T01:18:13.367Z,12.05
2022-08-27T01:19:24.092Z,12.15
2022-08-27T01:21:37.120Z,11.93
2022-08-27T01:22:50.905Z,12.57
2022-08-27T01:23:59.453Z,11.90
2022-08-27T01:25:09.089Z,13.18
2022-08-27T01:26:14.879Z,14.02
2022-08-27T01:27:21.987Z,13.70
2022-08-27T01:28:29.242Z,12.70
2022-08-27T01:29:41.037Z,12.35
2022-08-27T01:30:44.509Z,13.18
2022-08-27T01:31:46.641Z,13.02
2022-08-27T01:32:50.311Z,13.75
2022-08-27T01:33:57.407Z,13.52
2022-08-27T01:35:01.893Z,13.10
2022-08-27T01:36:05.773Z,12.43
2022-08-27T01:37:09.476Z,13.48
2022-08-27T01:38:30.015Z,13.32
2022-08-27T01:39:33.906Z,13.45
2022-08-27T01:40:38.403Z,13.65
2022-08-27T01:41:40.523Z,13.85
2022-08-27T01:42:46.176Z,13.77
2022-08-27T01:43:48.871Z,12.98
2022-08-27T01:44:54.670Z,13.48
2022-08-27T01:45:57.007Z,12.95
2022-08-27T01:47:00.173Z,13.30
2022-08-27T01:48:04.473Z,13.85
2022-08-27T01:49:06.541Z,12.60
2022-08-27T01:50:14.054Z,13.75
2022-08-27T01:51:16.363Z,13.77
2022-08-27T01:52:27.024Z,13.80
2022-08-27T01:54:32.087Z,13.25
2022-08-27T01:55:35.550Z,13.15
2022-08-27T01:56:38.998Z,12.57
2022-08-27T01:57:42.338Z,13.70
2022-08-27T01:58:45.607Z,14.20
2022-08-27T01:59:48.861Z,13.55
2022-08-27T02:00:56.537Z,13.50
2022-08-27T02:02:00.602Z,13.93
2022-08-27T02:03:04.293Z,13.20
2022-08-27T02:04:06.499Z,13.05
2022-08-27T02:05:10.477Z,13.18
2022-08-27T02:06:12.729Z,12.95
2022-08-27T02:07:15.867Z,14.57
2022-08-27T02:08:18.673Z,13.70
2022-08-27T02:09:21.869Z,14.32
2022-08-27T02:10:26.985Z,14.32
2022-08-27T02:11:30.082Z,14.02
2022-08-27T02:12:33.630Z,14.32
2022-08-27T02:13:37.009Z,13.40
2022-08-27T02:14:39.075Z,13.68
2022-08-27T02:15:43.296Z,14.00
2022-08-27T02:16:52.093Z,13.88
2022-08-27T02:17:56.694Z,13.75
2022-08-27T02:18:58.791Z,13.48
2022-08-27T02:20:03.249Z,14.38
2022-08-27T02:21:05.919Z,14.25
2022-08-27T02:22:09.005Z,14.40
2022-08-27T02:23:11.574Z,13.75
2022-08-27T02:24:14.850Z,14.07
2022-08-27T02:25:20.128Z,14.57
2022-08-27T02:26:23.860Z,14.75
2022-08-27T02:27:25.923Z,14.55
2022-08-27T02:28:30.501Z,14.60
2022-08-27T02:29:33.824Z,13.52
2022-08-27T02:30:37.681Z,14.35
2022-08-27T02:31:42.155Z,14.30
2022-08-27T02:32:47.380Z,14.43
2022-08-27T02:33:49.504Z,14.63
2022-08-27T02:34:52.621Z,13.68
2022-08-27T02:35:55.117Z,13.82
2022-08-27T02:36:58.531Z,14.32
2022-08-27T02:38:00.969Z,13.85
2022-08-27T02:39:04.828Z,13.63
2022-08-27T02:40:08.889Z,14.40
2022-08-27T02:41:12.058Z,14.05
2022-08-27T02:42:14.146Z,13.95
2022-08-27T02:43:25.030Z,13.00
2022-08-27T02:44:29.129Z,13.38
2022-08-27T02:45:33.749Z,13.77
2022-08-27T02:46:38.764Z,13.00
2022-08-27T02:47:42.622Z,13.00
2022-08-27T02:48:44.744Z,13.30
2022-08-27T02:49:47.953Z,13.68
2022-08-27T02:50:50.111Z,13.40
2022-08-27T02:51:55.006Z,12.25
2022-08-27T02:52:57.928Z,12.73
2022-08-27T02:54:01.995Z,13.02
2022-08-27T02:55:04.982Z,13.27
2022-08-27T02:56:09.902Z,12.43
2022-08-27T02:57:12.429Z,14.13
2022-08-27T02:58:16.961Z,13.18
2022-08-27T02:59:19.725Z,13.60
2022-08-27T03:00:26.074Z,13.52
2022-08-27T03:01:28.262Z,13.63
2022-08-27T03:02:31.425Z,13.35
2022-08-27T03:03:33.700Z,13.25
2022-08-27T03:04:36.837Z,14.48
2022-08-27T03:05:39.518Z,14.07
2022-08-27T03:06:42.647Z,13.20
2022-08-27T03:07:45.336Z,13.30
2022-08-27T03:08:53.095Z,13.88
2022-08-27T03:09:55.647Z,14.55
2022-08-27T03:10:58.843Z,14.30
2022-08-27T03:12:01.694Z,14.07
2022-08-27T03:13:05.042Z,13.25
2022-08-27T03:14:07.189Z,14.60
2022-08-27T03:15:14.237Z,14.23
2022-08-27T03:16:17.923Z,14.27
2022-08-27T03:17:38.450Z,13.98
2022-08-27T03:18:41.648Z,14.75
2022-08-27T03:19:43.806Z,13.82
2022-08-27T03:20:49.907Z,14.45
2022-08-27T03:21:54.353Z,14.95
2022-08-27T03:22:58.028Z,14.80
2022-08-27T03:24:09.399Z,14.02
2022-08-27T03:25:15.016Z,14.57
2022-08-27T03:26:17.670Z,14.25
2022-08-27T03:27:20.725Z,14.27
2022-08-27T03:28:25.951Z,14.10
2022-08-27T03:29:28.412Z,14.20
2022-08-27T03:30:31.584Z,13.52
2022-08-27T03:31:35.135Z,13.52
2022-08-27T03:32:38.899Z,14.85
2022-08-27T03:33:41.117Z,14.20
2022-08-27T03:34:44.247Z,14.27
2022-08-27T03:35:51.530Z,13.60
2022-08-27T03:36:54.838Z,13.48
2022-08-27T03:37:56.994Z,14.40
2022-08-27T03:39:00.286Z,12.95
2022-08-27T03:40:04.095Z,13.65
2022-08-27T03:41:08.319Z,13.68
2022-08-27T03:42:10.523Z,13.63
2022-08-27T03:43:14.612Z,14.23
2022-08-27T03:44:21.558Z,13.68
2022-08-27T03:45:27.305Z,13.55
2022-08-27T03:46:31.047Z,13.35
2022-08-27T03:47:35.874Z,13.80
2022-08-27T03:48:38.450Z,13.88
2022-08-27T03:49:41.791Z,14.07
2022-08-27T03:50:46.887Z,14.27
2022-08-27T03:51:50.785Z,13.90
2022-08-27T03:52:52.905Z,14.40
2022-08-27T03:53:56.175Z,14.27
2022-08-27T03:54:59.127Z,13.55
2022-08-27T03:56:02.225Z,15.00
2022-08-27T03:57:05.573Z,14.85
2022-08-27T03:58:09.221Z,14.10
2022-08-27T03:59:11.427Z,14.77
2022-08-27T04:00:15.232Z,15.80
2022-08-27T04:01:19.420Z,15.10
2022-08-27T04:02:22.568Z,15.80
2022-08-27T04:03:27.188Z,15.63
2022-08-27T04:04:31.073Z,15.68
2022-08-27T04:05:34.417Z,14.93
2022-08-27T04:06:36.744Z,15.63
2022-08-27T04:07:40.088Z,14.25
2022-08-27T04:08:42.267Z,14.60
2022-08-27T04:09:45.334Z,14.98
2022-08-27T04:10:47.835Z,14.95
2022-08-27T04:11:51.032Z,15.85
2022-08-27T04:12:53.498Z,13.85
2022-08-27T04:13:58.276Z,14.75
2022-08-27T04:15:00.433Z,14.95
2022-08-27T04:16:06.321Z,14.65
2022-08-27T04:17:08.406Z,15.73
2022-08-27T04:18:12.152Z,14.73
2022-08-27T04:19:15.761Z,14.50
2022-08-27T04:20:35.081Z,14.15
2022-08-27T04:21:37.683Z,14.50
2022-08-27T04:22:40.955Z,14.18
2022-08-27T04:23:43.368Z,14.50
2022-08-27T04:24:46.469Z,14.43
2022-08-27T04:25:48.584Z,14.40
2022-08-27T04:26:51.575Z,13.95
2022-08-27T04:27:53.920Z,14.82
2022-08-27T04:28:58.835Z,14.18
2022-08-27T04:30:02.211Z,14.23
2022-08-27T04:31:05.520Z,14.20
2022-08-27T04:32:07.753Z,14.20
2022-08-27T04:33:10.896Z,13.15
2022-08-27T04:34:13.023Z,13.40
2022-08-27T04:35:17.871Z,13.90
2022-08-27T04:36:20.457Z,13.10
2022-08-27T04:37:23.716Z,13.45
2022-08-27T04:38:26.019Z,12.90
2022-08-27T04:39:32.797Z,13.18
2022-08-27T04:41:00.582Z,13.55
2022-08-27T04:42:03.665Z,13.35
2022-08-27T04:43:05.757Z,12.88
2022-08-27T04:44:10.898Z,14.32
2022-08-27T04:45:14.004Z,12.63
2022-08-27T04:46:20.762Z,12.98
2022-08-27T04:47:23.841Z,12.82
2022-08-27T04:48:26.132Z,13.52
2022-08-27T04:49:30.448Z,13.18
2022-08-27T04:50:40.464Z,13.00
2022-08-27T04:51:44.429Z,12.77
2022-08-27T04:52:47.844Z,13.20
2022-08-27T04:53:51.344Z,13.70
2022-08-27T04:54:53.795Z,13.43
2022-08-27T04:55:58.413Z,13.15
2022-08-27T04:57:01.069Z,13.32
2022-08-27T04:58:04.229Z,13.27
2022-08-27T04:59:08.807Z,13.10
2022-08-27T05:00:12.833Z,12.93
2022-08-27T05:01:17.384Z,13.13
2022-08-27T05:02:20.501Z,12.88
2022-08-27T05:03:24.308Z,13.68
2022-08-27T05:04:27.598Z,12.82
2022-08-27T05:05:29.738Z,12.95
2022-08-27T05:06:34.617Z,12.65
2022-08-27T05:07:37.788Z,13.07
2022-08-27T05:08:40.728Z,12.55
2022-08-27T05:09:43.753Z,13.52
2022-08-27T05:10:47.949Z,11.90
2022-08-27T05:11:52.161Z,12.60
2022-08-27T05:12:56.873Z,12.77
2022-08-27T05:14:04.728Z,12.80
2022-08-27T05:15:07.657Z,11.43
2022-08-27T05:16:13.779Z,12.32
2022-08-27T05:17:15.847Z,12.10
2022-08-27T05:18:18.967Z,11.55
2022-08-27T05:19:21.819Z,12.52
2022-08-27T05:20:25.036Z,11.57
2022-08-27T05:21:29.225Z,12.10
2022-08-27T05:22:33.847Z,12.57
2022-08-27T05:23:36.742Z,12.68
2022-08-27T05:24:41.636Z,12.93
2022-08-27T05:25:45.978Z,12.75
2022-08-27T05:26:50.440Z,12.05
2022-08-27T05:27:52.909Z,12.63
2022-08-27T05:28:56.284Z,12.45
2022-08-27T05:29:58.436Z,13.00
2022-08-27T05:31:05.924Z,12.77
2022-08-27T05:32:07.992Z,11.95
2022-08-27T05:33:11.658Z,12.30
2022-08-27T05:34:18.924Z,12.18
2022-08-27T05:35:26.743Z,12.25
2022-08-27T05:36:33.185Z,12.43
2022-08-27T05:37:37.120Z,12.07
2022-08-27T05:38:40.184Z,12.00
2022-08-27T05:39:43.249Z,12.77
2022-08-27T05:40:48.031Z,12.60
2022-08-27T05:41:52.427Z,12.60
2022-08-27T05:42:54.869Z,12.93
2022-08-27T05:43:59.354Z,13.00
2022-08-27T05:45:02.757Z,13.23
2022-08-27T05:46:07.136Z,13.95
2022-08-27T05:47:10.120Z,13.43
2022-08-27T05:48:14.017Z,14.18
2022-08-27T05:49:16.469Z,14.35
2022-08-27T05:50:23.439Z,14.77
2022-08-27T05:51:28.415Z,14.68
2022-08-27T05:52:31.522Z,14.02
2022-08-27T05:53:35.284Z,13.45
2022-08-27T05:54:38.567Z,13.57
2022-08-27T05:55:42.519Z,13.63
2022-08-27T05:56:46.042Z,13.68
2022-08-27T05:57:48.117Z,14.20
2022-08-27T05:59:08.961Z,13.82
2022-08-27T06:01:36.167Z,14.02
2022-08-27T06:02:39.396Z,13.27
2022-08-27T06:03:42.572Z,14.25
2022-08-27T06:04:45.727Z,14.43
2022-08-27T06:05:47.885Z,14.95
2022-08-27T06:06:52.163Z,14.18
2022-08-27T06:07:54.195Z,14.35
2022-08-27T06:08:58.595Z,14.55
2022-08-27T06:10:02.111Z,14.95
2022-08-27T06:11:06.348Z,13.95
2022-08-27T06:12:10.278Z,14.35
2022-08-27T06:13:12.400Z,14.05
2022-08-27T06:14:15.594Z,14.77
2022-08-27T06:15:17.886Z,14.07
2022-08-27T06:16:21.276Z,13.38
2022-08-27T06:17:23.439Z,14.25
2022-08-27T06:18:26.491Z,13.70
2022-08-27T06:19:29.005Z,14.48
2022-08-27T06:20:32.334Z,13.85
2022-08-27T06:21:34.838Z,13.38
2022-08-27T06:22:37.991Z,13.77
2022-08-27T06:23:40.103Z,14.65
2022-08-27T06:24:45.006Z,14.32
2022-08-27T06:25:47.117Z,13.70
2022-08-27T06:26:50.301Z,14.45
2022-08-27T06:27:52.456Z,13.90
2022-08-27T06:28:55.725Z,13.93
2022-08-27T06:29:57.858Z,13.80
2022-08-27T06:31:05.231Z,13.07
2022-08-27T06:32:09.482Z,14.00
2022-08-27T06:33:11.560Z,13.68
2022-08-27T06:34:16.547Z,14.15
2022-08-27T06:35:18.879Z,13.52
2022-08-27T06:36:25.461Z,13.52
2022-08-27T06:37:29.269Z,13.60
2022-08-27T06:38:31.785Z,13.45
2022-08-27T06:39:36.250Z,12.65
2022-08-27T06:40:42.266Z,13.60
2022-08-27T06:41:45.859Z,13.38
2022-08-27T06:42:48.196Z,13.45
2022-08-27T06:43:51.953Z,13.77
2022-08-27T06:44:54.621Z,12.73
2022-08-27T06:45:57.915Z,12.98
2022-08-27T06:47:00.094Z,13.07
2022-08-27T06:48:03.264Z,12.90
2022-08-27T06:49:05.635Z,13.02
2022-08-27T06:50:09.473Z,13.40
2022-08-27T06:51:14.059Z,13.07
2022-08-27T06:52:17.149Z,12.70
2022-08-27T06:53:19.242Z,13.50
2022-08-27T06:54:27.909Z,13.52
2022-08-27T06:55:33.092Z,13.27
2022-08-27T06:56:40.815Z,12.77
2022-08-27T06:57:43.216Z,13.18
2022-08-27T06:58:46.810Z,13.18
2022-08-27T06:59:49.829Z,13.00
2022-08-27T07:00:51.899Z,13.07
2022-08-27T07:01:55.391Z,13.18
2022-08-27T07:02:57.554Z,13.13
2022-08-27T07:04:04.238Z,14.02
2022-08-27T07:05:09.412Z,13.23
2022-08-27T07:06:13.289Z,13.02
2022-08-27T07:07:30.216Z,12.93
2022-08-27T07:08:39.665Z,12.38
2022-08-27T07:09:41.750Z,13.35
2022-08-27T07:10:44.841Z,13.57
2022-08-27T07:11:48.354Z,12.32
2022-08-27T07:12:51.419Z,12.07
2022-08-27T07:13:53.591Z,11.88
2022-08-27T07:14:56.698Z,12.30
2022-08-27T07:15:59.353Z,11.98
2022-08-27T07:17:03.161Z,11.95
2022-08-27T07:18:05.739Z,11.90
2022-08-27T07:19:08.897Z,11.88
2022-08-27T07:20:13.760Z,12.02
2022-08-27T07:21:16.871Z,11.98
2022-08-27T07:22:18.943Z,12.80
2022-08-27T07:23:22.068Z,11.23
2022-08-27T07:24:24.521Z,11.10
2022-08-27T07:25:27.668Z,11.10
2022-08-27T07:26:29.838Z,10.82
2022-08-27T07:27:34.392Z,10.88
2022-08-27T07:28:38.175Z,10.77
2022-08-27T07:29:41.575Z,11.02
2022-08-27T07:30:43.903Z,11.10
2022-08-27T07:31:47.259Z,10.07
2022-08-27T07:32:49.415Z,10.75
2022-08-27T07:33:53.382Z,10.80
2022-08-27T07:34:55.554Z,11.10
2022-08-27T07:35:58.866Z,9.93
2022-08-27T07:37:01.974Z,11.20
2022-08-27T07:38:04.175Z,11.10
2022-08-27T07:39:07.768Z,10.50
2022-08-27T07:40:14.412Z,9.95
2022-08-27T07:41:18.157Z,10.50
2022-08-27T07:42:38.755Z,11.27
2022-08-27T07:44:02.130Z,10.35
2022-08-27T07:45:05.782Z,11.10
2022-08-27T07:46:08.657Z,11.18
2022-08-27T07:47:11.879Z,11.02
2022-08-27T07:48:14.250Z,10.95
2022-08-27T07:49:17.772Z,10.48
2022-08-27T07:50:20.885Z,10.50
2022-08-27T07:51:26.091Z,11.57
2022-08-27T07:52:29.239Z,10.63
2022-08-27T07:53:32.376Z,10.85
2022-08-27T07:54:35.495Z,11.13
2022-08-27T07:55:37.961Z,10.82
2022-08-27T07:56:41.324Z,11.20
2022-08-27T07:57:44.853Z,10.32
2022-08-27T07:58:48.301Z,10.55
2022-08-27T07:59:53.179Z,10.77
2022-08-27T08:00:56.176Z,11.30
2022-08-27T08:01:59.260Z,10.95
2022-08-27T08:03:01.429Z,11.32
2022-08-27T08:04:05.261Z,10.85
2022-08-27T08:05:08.086Z,10.95
2022-08-27T08:06:14.175Z,10.15
2022-08-27T08:07:16.344Z,10.68
2022-08-27T08:08:19.437Z,9.55
2022-08-27T08:09:23.854Z,9.55
2022-08-27T08:10:27.426Z,9.88
2022-08-27T08:11:29.543Z,9.60
2022-08-27T08:12:32.713Z,9.55
2022-08-27T08:13:35.161Z,9.82
2022-08-27T08:14:42.799Z,9.80
2022-08-27T08:15:46.359Z,9.70
2022-08-27T08:16:49.606Z,9.32
2022-08-27T08:17:51.749Z,9.98
2022-08-27T08:18:55.053Z,10.00
2022-08-27T08:20:18.536Z,9.88
2022-08-27T08:21:20.591Z,9.45
2022-08-27T08:22:22.711Z,9.98
2022-08-27T08:23:25.795Z,10.02
2022-08-27T08:24:28.908Z,10.50
2022-08-27T08:25:38.462Z,9.80
2022-08-27T08:26:42.203Z,9.98
2022-08-27T08:27:45.123Z,9.23
2022-08-27T08:28:48.226Z,10.13
2022-08-27T08:29:51.902Z,10.20
2022-08-27T08:30:55.691Z,9.90
2022-08-27T08:31:57.888Z,10.32
2022-08-27T08:33:01.010Z,9.93
2022-08-27T08:34:03.588Z,9.15
2022-08-27T08:35:08.159Z,8.68
2022-08-27T08:36:11.823Z,9.82
2022-08-27T08:37:15.398Z,9.38
2022-08-27T08:38:18.239Z,9.50
2022-08-27T08:39:21.749Z,9.73
2022-08-27T08:40:34.584Z,10.02
2022-08-27T08:41:42.892Z,10.05
2022-08-27T08:42:53.725Z,9.77
2022-08-27T08:43:56.489Z,9.20
2022-08-27T08:45:04.425Z,9.68
2022-08-27T08:46:14.504Z,9.23
2022-08-27T08:47:21.532Z,8.93
2022-08-27T08:48:27.023Z,8.68
2022-08-27T08:51:02.186Z,8.90
2022-08-27T08:52:18.232Z,8.82
2022-08-27T08:53:43.849Z,8.32
2022-08-27T08:54:46.379Z,8.57
2022-08-27T08:55:53.994Z,8.18
2022-08-27T08:56:59.686Z,8.70
2022-08-27T08:58:12.620Z,8.35
2022-08-27T08:59:21.305Z,8.73
2022-08-27T09:00:24.176Z,8.32
2022-08-27T09:01:27.921Z,8.02
2022-08-27T09:02:30.054Z,8.57
2022-08-27T09:03:36.357Z,8.68
2022-08-27T09:04:38.651Z,8.50
2022-08-27T09:05:46.853Z,8.82
2022-08-27T09:06:54.722Z,7.85
2022-08-27T09:08:31.102Z,7.88
2022-08-27T09:09:38.340Z,9.00
2022-08-27T09:10:44.798Z,8.48
2022-08-27T09:11:57.563Z,8.50
2022-08-27T09:13:03.527Z,8.35
2022-08-27T09:14:21.276Z,8.82
2022-08-27T09:15:30.076Z,8.25
2022-08-27T09:16:32.577Z,8.18
2022-08-27T09:17:36.398Z,8.40
2022-08-27T09:18:40.852Z,8.82
2022-08-27T09:19:44.349Z,8.85
2022-08-27T09:20:50.983Z,8.20
2022-08-27T09:22:02.201Z,9.77
2022-08-27T09:23:11.937Z,8.15
2022-08-27T09:24:23.621Z,7.97
2022-08-27T09:25:31.742Z,8.73
2022-08-27T09:26:37.926Z,8.65
2022-08-27T09:27:42.952Z,8.30
2022-08-27T09:29:03.707Z,8.73
2022-08-27T09:30:10.649Z,8.40
2022-08-27T09:31:15.998Z,8.25
2022-08-27T09:32:24.431Z,8.15
2022-08-27T09:33:26.597Z,8.25
2022-08-27T09:34:47.443Z,8.63
2022-08-27T09:35:52.220Z,8.93
2022-08-27T09:37:07.426Z,8.90
2022-08-27T09:38:10.130Z,8.73
2022-08-27T09:39:15.021Z,9.13
2022-08-27T09:40:24.769Z,8.48
2022-08-27T09:41:29.927Z,8.55
2022-08-27T09:42:38.508Z,8.95
2022-08-27T09:43:43.812Z,9.10
2022-08-27T09:44:52.902Z,8.23
2022-08-27T09:45:59.492Z,8.38
2022-08-27T09:47:04.786Z,8.00
2022-08-27T09:48:10.927Z,8.05
2022-08-27T09:49:16.480Z,8.07
2022-08-27T09:50:22.065Z,8.05
2022-08-27T09:51:27.648Z,8.40
2022-08-27T09:52:37.915Z,8.55
2022-08-27T09:53:50.873Z,7.68
2022-08-27T09:54:55.811Z,7.97
2022-08-27T09:56:00.835Z,9.23
2022-08-27T09:57:02.881Z,7.93
2022-08-27T09:58:07.771Z,7.70
2022-08-27T09:59:12.674Z,7.88
2022-08-27T10:00:18.760Z,7.80
2022-08-27T10:01:22.919Z,7.80
2022-08-27T10:02:27.811Z,8.18
2022-08-27T10:03:33.450Z,7.78
2022-08-27T10:04:50.339Z,7.95
2022-08-27T10:05:55.284Z,8.20
2022-08-27T10:06:57.386Z,7.70
2022-08-27T10:08:06.218Z,9.30
2022-08-27T10:09:13.390Z,7.32
2022-08-27T10:10:22.413Z,8.52
2022-08-27T10:11:31.312Z,7.63
2022-08-27T10:12:42.799Z,8.05
2022-08-27T10:13:53.844Z,7.43
2022-08-27T10:15:00.454Z,7.03
2022-08-27T10:16:20.731Z,7.47
2022-08-27T10:17:31.019Z,7.28
2022-08-27T10:18:41.434Z,8.68
2022-08-27T10:19:57.433Z,7.15
2022-08-27T10:21:09.935Z,10.52
2022-08-27T10:22:20.528Z,7.07
2022-08-27T10:23:36.482Z,7.32
2022-08-27T10:24:48.943Z,7.57
2022-08-27T10:26:04.279Z,7.60
2022-08-27T10:27:14.197Z,6.65
2022-08-27T10:28:28.470Z,6.57
2022-08-27T10:29:36.064Z,6.75
2022-08-27T10:30:52.133Z,6.63
2022-08-27T10:32:07.159Z,6.40
2022-08-27T10:33:23.268Z,6.43
2022-08-27T10:34:34.282Z,6.70
2022-08-27T10:35:54.736Z,6.38
2022-08-27T10:37:09.954Z,6.82
2022-08-27T10:38:18.223Z,6.53
2022-08-27T10:39:38.185Z,6.63
2022-08-27T10:40:45.767Z,6.45
2022-08-27T10:41:56.107Z,6.15
2022-08-27T10:43:10.383Z,6.38
2022-08-27T10:44:27.065Z,7.28
2022-08-27T10:45:42.629Z,6.10
2022-08-27T10:47:03.713Z,6.68
2022-08-27T10:48:14.691Z,6.13
2022-08-27T10:49:23.828Z,6.03
2022-08-27T10:50:33.120Z,6.10
2022-08-27T10:51:41.916Z,6.13
2022-08-27T10:52:51.574Z,5.93
2022-08-27T10:54:06.031Z,6.18
2022-08-27T10:55:19.002Z,5.95
2022-08-27T10:56:28.973Z,5.10
2022-08-27T10:57:58.731Z,4.90
2022-08-27T10:59:14.647Z,5.32
2022-08-27T11:00:19.732Z,4.70
2022-08-27T11:01:34.900Z,4.32
2022-08-27T11:02:42.992Z,4.78
2022-08-27T11:03:49.346Z,4.60
2022-08-27T11:04:55.086Z,5.10
2022-08-27T11:06:02.878Z,4.55
2022-08-27T11:07:09.276Z,4.53
2022-08-27T11:08:18.481Z,5.07
2022-08-27T11:09:22.759Z,3.97
2022-08-27T11:10:30.732Z,4.05
2022-08-27T11:13:06.584Z,4.40
2022-08-27T11:14:19.971Z,4.03
2022-08-27T11:15:28.027Z,4.10
2022-08-27T11:16:37.063Z,4.22
2022-08-27T11:17:45.126Z,4.30
2022-08-27T11:18:52.830Z,4.18
2022-08-27T11:20:01.458Z,3.92
2022-08-27T11:21:10.674Z,3.80
2022-08-27T11:22:26.219Z,3.67
2022-08-27T11:23:38.649Z,3.60
2022-08-27T11:24:47.861Z,3.35
2022-08-27T11:25:59.579Z,3.80
2022-08-27T11:27:07.587Z,3.30
2022-08-27T11:28:12.771Z,3.45
2022-08-27T11:29:22.295Z,3.33
2022-08-27T11:30:36.049Z,3.30
2022-08-27T11:31:45.781Z,3.00
2022-08-27T11:32:58.655Z,3.15
2022-08-27T11:34:08.025Z,3.38
2022-08-27T11:35:19.129Z,3.10
2022-08-27T11:37:02.739Z,3.03
2022-08-27T11:38:31.351Z,2.65
2022-08-27T11:40:07.876Z,2.95
2022-08-27T11:41:53.695Z,3.05
2022-08-27T11:43:00.278Z,2.50
2022-08-27T11:44:04.480Z,2.78
2022-08-27T11:45:11.772Z,2.80
2022-08-27T11:46:25.177Z,2.90
2022-08-27T11:47:29.689Z,2.67
2022-08-27T11:48:33.684Z,2.90
2022-08-27T11:49:44.863Z,3.20
2022-08-27T11:51:00.805Z,2.70
2022-08-27T11:52:05.388Z,2.92
2022-08-27T11:53:09.631Z,2.65
2022-08-27T11:54:26.341Z,2.85
2022-08-27T11:55:33.303Z,2.60
2022-08-27T11:56:42.141Z,3.25
2022-08-27T11:57:46.212Z,2.70
2022-08-27T11:58:52.744Z,2.78
2022-08-27T11:59:56.953Z,2.70
2022-08-27T12:01:04.335Z,2.55
2022-08-27T12:02:24.307Z,2.60
2022-08-27T12:03:31.622Z,3.03
2022-08-27T12:04:37.455Z,2.92
2022-08-27T12:05:44.598Z,2.83
2022-08-27T12:06:53.561Z,2.60
2022-08-27T12:07:57.694Z,3.20
2022-08-27T12:09:14.858Z,3.15
2022-08-27T12:10:43.511Z,2.65
2022-08-27T12:11:59.909Z,2.65
2022-08-27T12:13:12.292Z,2.58
2022-08-27T12:14:32.265Z,2.63
2022-08-27T12:15:47.981Z,2.50
2022-08-27T12:16:59.521Z,2.60
2022-08-27T12:18:11.249Z,2.67
2022-08-27T12:19:25.552Z,2.50
2022-08-27T12:20:39.557Z,2.92
2022-08-27T12:21:53.326Z,2.85
2022-08-27T12:23:24.675Z,2.72
2022-08-27T12:24:49.231Z,2.60
2022-08-27T12:26:01.304Z,2.47
2022-08-27T12:27:18.148Z,2.80
2022-08-27T12:28:26.785Z,2.70
2022-08-27T12:29:39.316Z,2.67
2022-08-27T12:30:51.994Z,2.63
2022-08-27T12:32:00.397Z,3.00
2022-08-27T12:33:13.144Z,2.78
2022-08-27T12:34:16.840Z,2.70
2022-08-27T12:35:27.620Z,2.92
2022-08-27T12:36:33.614Z,2.80
2022-08-27T12:37:41.129Z,2.47
2022-08-27T12:38:50.517Z,2.67
2022-08-27T12:39:56.932Z,2.20
2022-08-27T12:41:03.920Z,3.20
2022-08-27T12:42:16.488Z,2.90
2022-08-27T12:43:22.410Z,2.60
2022-08-27T12:44:27.614Z,2.67
2022-08-27T12:45:31.178Z,2.80
2022-08-27T12:46:36.864Z,2.90
2022-08-27T12:47:50.879Z,2.63
2022-08-27T12:48:57.112Z,2.42
2022-08-27T12:50:02.717Z,3.00
2022-08-27T12:51:15.389Z,3.08
2022-08-27T12:52:35.248Z,2.55
2022-08-27T12:53:44.471Z,2.90
2022-08-27T12:54:59.125Z,2.58
2022-08-27T12:56:20.644Z,3.08
2022-08-27T12:57:33.040Z,3.00
2022-08-27T12:58:50.810Z,3.85
2022-08-27T13:00:12.484Z,2.72
2022-08-27T13:01:36.764Z,2.80
2022-08-27T13:03:15.939Z,3.47
2022-08-27T13:04:22.899Z,2.95
2022-08-27T13:05:25.600Z,3.08
2022-08-27T13:06:33.052Z,2.78
2022-08-27T13:07:41.101Z,2.92
2022-08-27T13:08:44.363Z,3.90
2022-08-27T13:09:47.452Z,2.80
2022-08-27T13:10:50.047Z,2.80
2022-08-27T13:11:56.581Z,2.33
2022-08-27T13:13:08.434Z,2.20
2022-08-27T13:14:12.315Z,2.78
2022-08-27T13:15:17.332Z,2.30
2022-08-27T13:16:21.315Z,2.67
2022-08-27T13:17:25.977Z,2.63
2022-08-27T13:18:30.083Z,2.60
2022-08-27T13:19:35.857Z,2.85
2022-08-27T13:20:40.232Z,2.28
2022-08-27T13:21:50.092Z,2.65
2022-08-27T13:22:54.040Z,3.13
2022-08-27T13:24:00.405Z,2.75
2022-08-27T13:25:02.978Z,2.55
2022-08-27T13:26:10.141Z,2.85
2022-08-27T13:27:13.167Z,2.55
2022-08-27T13:28:21.094Z,2.55
2022-08-27T13:29:24.060Z,2.17
2022-08-27T13:30:35.943Z,2.67
2022-08-27T13:31:39.853Z,2.50
2022-08-27T13:32:42.268Z,2.60
2022-08-27T13:33:46.069Z,3.78
2022-08-27T13:34:48.453Z,2.70
2022-08-27T13:35:52.221Z,2.92
2022-08-27T13:36:58.313Z,2.47
2022-08-27T13:38:03.550Z,2.10
2022-08-27T13:39:07.426Z,2.50
2022-08-27T13:40:11.405Z,2.45
2022-08-27T13:41:25.028Z,2.35
2022-08-27T13:42:27.868Z,2.58
2022-08-27T13:43:38.665Z,2.90
2022-08-27T13:44:41.424Z,2.80
2022-08-27T13:45:54.510Z,2.63
2022-08-27T13:47:02.289Z,2.13
2022-08-27T13:48:05.685Z,2.60
2022-08-27T13:49:18.166Z,2.38
2022-08-27T13:50:24.153Z,2.50
2022-08-27T13:51:30.987Z,2.25
2022-08-27T13:52:35.741Z,2.30
2022-08-27T13:54:03.336Z,2.33
2022-08-27T13:55:12.057Z,2.40
2022-08-27T13:56:28.605Z,1.98
2022-08-27T13:57:44.246Z,2.63
2022-08-27T13:58:49.340Z,2.25
2022-08-27T13:59:52.720Z,2.28
2022-08-27T14:01:09.116Z,2.55
2022-08-27T14:02:27.374Z,2.03
2022-08-27T14:03:34.040Z,2.20
2022-08-27T14:04:40.310Z,2.45
2022-08-27T14:05:52.100Z,2.55
2022-08-27T14:06:55.875Z,2.60
2022-08-27T14:08:00.052Z,2.00
2022-08-27T14:09:17.886Z,2.10
2022-08-27T14:10:34.754Z,2.00
2022-08-27T14:11:38.035Z,2.10
2022-08-27T14:12:43.743Z,2.40
2022-08-27T14:13:51.836Z,2.28
2022-08-27T14:14:59.077Z,1.92
2022-08-27T14:16:12.622Z,1.80
2022-08-27T14:17:29.095Z,1.88
2022-08-27T14:18:57.961Z,1.90
2022-08-27T14:20:05.807Z,1.85
2022-08-27T14:21:14.425Z,2.03
2022-08-27T14:22:23.627Z,3.88
2022-08-27T14:23:30.538Z,2.13
2022-08-27T14:24:36.937Z,1.75
2022-08-27T14:25:41.997Z,1.60
2022-08-27T14:26:49.640Z,2.33
2022-08-27T14:27:54.679Z,2.30
2022-08-27T14:29:01.492Z,1.33
2022-08-27T14:30:07.509Z,1.60
2022-08-27T14:31:11.504Z,1.80
2022-08-27T14:32:15.194Z,1.50
2022-08-27T14:33:18.697Z,2.03
2022-08-27T14:34:22.682Z,2.25
2022-08-27T14:35:26.389Z,2.28